sensor_id;sensor_type;location;lat;lon;timestamp;P1;durP1;ratioP1;P2;durP2;ratioP2
15944;SDS011;30172;48.832;8.732;2024-01-06T00:00:44;7.13;;;1.50;;
15944;SDS011;30172;48.832;8.732;2024-01-06T00:03:10;4.50;;;1.53;;
15944;SDS011;30172;48.832;8.732;2024-01-06T00:05:36;3.60;;;1.53;;
15944;SDS011;30172;48.832;8.732;2024-01-06T00:08:01;4.40;;;1.50;;
15944;SDS011;30172;48.832;8.732;2024-01-06T00:10:26;6.17;;;1.70;;
15944;SDS011;30172;48.832;8.732;2024-01-06T00:12:52;4.10;;;1.57;;
15944;SDS011;30172;48.832;8.732;2024-01-06T00:15:17;4.73;;;1.67;;
15944;SDS011;30172;48.832;8.732;2024-01-06T00:17:43;3.57;;;1.73;;
15944;SDS011;30172;48.832;8.732;2024-01-06T00:20:08;6.60;;;2.17;;
15944;SDS011;30172;48.832;8.732;2024-01-06T00:22:34;2.93;;;1.43;;
15944;SDS011;30172;48.832;8.732;2024-01-06T00:25:00;5.00;;;1.93;;
15944;SDS011;30172;48.832;8.732;2024-01-06T00:27:25;6.40;;;1.83;;
15944;SDS011;30172;48.832;8.732;2024-01-06T00:29:51;4.40;;;2.00;;
15944;SDS011;30172;48.832;8.732;2024-01-06T00:32:16;5.53;;;1.87;;
15944;SDS011;30172;48.832;8.732;2024-01-06T00:34:41;2.73;;;1.70;;
15944;SDS011;30172;48.832;8.732;2024-01-06T00:37:07;4.00;;;1.50;;
15944;SDS011;30172;48.832;8.732;2024-01-06T00:39:32;5.30;;;2.00;;
15944;SDS011;30172;48.832;8.732;2024-01-06T00:41:57;5.93;;;2.30;;
15944;SDS011;30172;48.832;8.732;2024-01-06T00:44:23;6.43;;;2.17;;
15944;SDS011;30172;48.832;8.732;2024-01-06T00:46:48;3.70;;;1.93;;
15944;SDS011;30172;48.832;8.732;2024-01-06T00:49:14;7.27;;;1.90;;
15944;SDS011;30172;48.832;8.732;2024-01-06T00:51:39;4.70;;;1.97;;
15944;SDS011;30172;48.832;8.732;2024-01-06T00:54:04;7.00;;;2.30;;
15944;SDS011;30172;48.832;8.732;2024-01-06T00:56:30;3.27;;;1.80;;
15944;SDS011;30172;48.832;8.732;2024-01-06T00:58:55;5.40;;;1.90;;
15944;SDS011;30172;48.832;8.732;2024-01-06T01:01:20;6.07;;;2.23;;
15944;SDS011;30172;48.832;8.732;2024-01-06T01:03:46;5.20;;;2.40;;
15944;SDS011;30172;48.832;8.732;2024-01-06T01:06:11;7.47;;;2.20;;
15944;SDS011;30172;48.832;8.732;2024-01-06T01:08:37;5.97;;;2.50;;
15944;SDS011;30172;48.832;8.732;2024-01-06T01:11:02;5.13;;;2.20;;
15944;SDS011;30172;48.832;8.732;2024-01-06T01:13:28;5.87;;;2.10;;
15944;SDS011;30172;48.832;8.732;2024-01-06T01:15:53;5.77;;;1.77;;
15944;SDS011;30172;48.832;8.732;2024-01-06T01:18:18;3.87;;;2.13;;
15944;SDS011;30172;48.832;8.732;2024-01-06T01:20:44;8.03;;;2.37;;
15944;SDS011;30172;48.832;8.732;2024-01-06T01:23:09;6.57;;;1.60;;
15944;SDS011;30172;48.832;8.732;2024-01-06T01:25:34;4.87;;;1.90;;
15944;SDS011;30172;48.832;8.732;2024-01-06T01:28:00;9.03;;;2.00;;
15944;SDS011;30172;48.832;8.732;2024-01-06T01:30:25;3.13;;;1.90;;
15944;SDS011;30172;48.832;8.732;2024-01-06T01:32:50;4.93;;;2.00;;
15944;SDS011;30172;48.832;8.732;2024-01-06T01:35:16;4.53;;;2.00;;
15944;SDS011;30172;48.832;8.732;2024-01-06T01:37:41;7.13;;;2.30;;
15944;SDS011;30172;48.832;8.732;2024-01-06T01:40:07;14.60;;;2.93;;
15944;SDS011;30172;48.832;8.732;2024-01-06T01:42:33;4.83;;;2.50;;
15944;SDS011;30172;48.832;8.732;2024-01-06T01:44:58;4.20;;;2.50;;
15944;SDS011;30172;48.832;8.732;2024-01-06T01:47:24;8.87;;;2.43;;
15944;SDS011;30172;48.832;8.732;2024-01-06T01:49:49;4.60;;;1.90;;
15944;SDS011;30172;48.832;8.732;2024-01-06T01:52:15;5.47;;;2.07;;
15944;SDS011;30172;48.832;8.732;2024-01-06T01:54:40;7.20;;;2.20;;
15944;SDS011;30172;48.832;8.732;2024-01-06T01:57:06;6.53;;;2.27;;
15944;SDS011;30172;48.832;8.732;2024-01-06T01:59:31;5.27;;;2.23;;
15944;SDS011;30172;48.832;8.732;2024-01-06T02:01:57;3.97;;;1.77;;
15944;SDS011;30172;48.832;8.732;2024-01-06T02:04:22;4.03;;;1.93;;
15944;SDS011;30172;48.832;8.732;2024-01-06T02:06:48;6.57;;;2.50;;
15944;SDS011;30172;48.832;8.732;2024-01-06T02:09:13;3.90;;;2.10;;
15944;SDS011;30172;48.832;8.732;2024-01-06T02:11:38;4.30;;;1.90;;
15944;SDS011;30172;48.832;8.732;2024-01-06T02:14:03;9.57;;;1.87;;
15944;SDS011;30172;48.832;8.732;2024-01-06T02:16:29;7.33;;;1.87;;
15944;SDS011;30172;48.832;8.732;2024-01-06T02:18:54;11.37;;;3.63;;
15944;SDS011;30172;48.832;8.732;2024-01-06T02:21:21;7.70;;;2.67;;
15944;SDS011;30172;48.832;8.732;2024-01-06T02:23:47;9.40;;;2.73;;
15944;SDS011;30172;48.832;8.732;2024-01-06T02:26:13;6.77;;;2.00;;
15944;SDS011;30172;48.832;8.732;2024-01-06T02:28:40;5.40;;;1.83;;
15944;SDS011;30172;48.832;8.732;2024-01-06T02:31:05;2.17;;;1.70;;
15944;SDS011;30172;48.832;8.732;2024-01-06T02:33:31;5.10;;;1.63;;
15944;SDS011;30172;48.832;8.732;2024-01-06T02:35:56;4.10;;;1.70;;
15944;SDS011;30172;48.832;8.732;2024-01-06T02:38:21;5.43;;;1.93;;
15944;SDS011;30172;48.832;8.732;2024-01-06T02:40:47;3.80;;;2.00;;
15944;SDS011;30172;48.832;8.732;2024-01-06T02:43:12;2.80;;;2.00;;
15944;SDS011;30172;48.832;8.732;2024-01-06T02:45:37;4.97;;;2.00;;
15944;SDS011;30172;48.832;8.732;2024-01-06T02:48:03;3.70;;;2.07;;
15944;SDS011;30172;48.832;8.732;2024-01-06T02:50:28;8.57;;;2.03;;
15944;SDS011;30172;48.832;8.732;2024-01-06T02:52:54;9.80;;;2.97;;
15944;SDS011;30172;48.832;8.732;2024-01-06T02:55:19;3.80;;;1.70;;
15944;SDS011;30172;48.832;8.732;2024-01-06T02:57:44;4.77;;;1.63;;
15944;SDS011;30172;48.832;8.732;2024-01-06T03:00:10;3.20;;;1.83;;
15944;SDS011;30172;48.832;8.732;2024-01-06T03:02:36;3.70;;;1.77;;
15944;SDS011;30172;48.832;8.732;2024-01-06T03:05:02;1.93;;;1.40;;
15944;SDS011;30172;48.832;8.732;2024-01-06T03:07:28;2.60;;;1.50;;
15944;SDS011;30172;48.832;8.732;2024-01-06T03:09:53;5.57;;;1.63;;
15944;SDS011;30172;48.832;8.732;2024-01-06T03:12:18;3.20;;;1.70;;
15944;SDS011;30172;48.832;8.732;2024-01-06T03:14:44;4.77;;;1.63;;
15944;SDS011;30172;48.832;8.732;2024-01-06T03:17:09;5.23;;;1.90;;
15944;SDS011;30172;48.832;8.732;2024-01-06T03:19:38;3.47;;;1.90;;
15944;SDS011;30172;48.832;8.732;2024-01-06T03:22:04;6.07;;;1.77;;
15944;SDS011;30172;48.832;8.732;2024-01-06T03:24:29;5.63;;;1.40;;
15944;SDS011;30172;48.832;8.732;2024-01-06T03:26:56;5.17;;;1.70;;
15944;SDS011;30172;48.832;8.732;2024-01-06T03:29:21;4.40;;;1.97;;
15944;SDS011;30172;48.832;8.732;2024-01-06T03:31:46;3.20;;;1.70;;
15944;SDS011;30172;48.832;8.732;2024-01-06T03:34:12;5.50;;;2.73;;
15944;SDS011;30172;48.832;8.732;2024-01-06T03:36:38;4.73;;;2.07;;
15944;SDS011;30172;48.832;8.732;2024-01-06T03:39:03;4.67;;;2.00;;
15944;SDS011;30172;48.832;8.732;2024-01-06T03:41:29;8.73;;;2.97;;
15944;SDS011;30172;48.832;8.732;2024-01-06T03:43:54;9.70;;;3.37;;
15944;SDS011;30172;48.832;8.732;2024-01-06T03:46:20;9.30;;;3.37;;
15944;SDS011;30172;48.832;8.732;2024-01-06T03:48:45;6.73;;;3.30;;
15944;SDS011;30172;48.832;8.732;2024-01-06T03:51:11;8.17;;;2.70;;
15944;SDS011;30172;48.832;8.732;2024-01-06T03:53:37;9.83;;;3.37;;
15944;SDS011;30172;48.832;8.732;2024-01-06T03:56:03;8.67;;;3.37;;
15944;SDS011;30172;48.832;8.732;2024-01-06T03:58:29;4.37;;;2.60;;
15944;SDS011;30172;48.832;8.732;2024-01-06T04:00:54;6.17;;;2.43;;
15944;SDS011;30172;48.832;8.732;2024-01-06T04:03:19;7.00;;;2.67;;
15944;SDS011;30172;48.832;8.732;2024-01-06T04:05:45;5.67;;;1.90;;
15944;SDS011;30172;48.832;8.732;2024-01-06T04:08:10;3.93;;;2.10;;
15944;SDS011;30172;48.832;8.732;2024-01-06T04:10:35;3.90;;;2.30;;
15944;SDS011;30172;48.832;8.732;2024-01-06T04:13:01;6.80;;;2.07;;
15944;SDS011;30172;48.832;8.732;2024-01-06T04:15:26;6.53;;;2.50;;
15944;SDS011;30172;48.832;8.732;2024-01-06T04:17:51;5.60;;;2.10;;
15944;SDS011;30172;48.832;8.732;2024-01-06T04:20:17;4.20;;;1.97;;
15944;SDS011;30172;48.832;8.732;2024-01-06T04:22:43;3.80;;;1.97;;
15944;SDS011;30172;48.832;8.732;2024-01-06T04:25:09;3.43;;;1.80;;
15944;SDS011;30172;48.832;8.732;2024-01-06T04:27:35;4.57;;;1.83;;
15944;SDS011;30172;48.832;8.732;2024-01-06T04:30:00;5.53;;;2.00;;
15944;SDS011;30172;48.832;8.732;2024-01-06T04:32:25;5.10;;;2.30;;
15944;SDS011;30172;48.832;8.732;2024-01-06T04:34:51;5.33;;;2.03;;
15944;SDS011;30172;48.832;8.732;2024-01-06T04:37:16;4.63;;;1.90;;
15944;SDS011;30172;48.832;8.732;2024-01-06T04:39:41;6.90;;;2.10;;
15944;SDS011;30172;48.832;8.732;2024-01-06T04:42:07;6.07;;;2.13;;
15944;SDS011;30172;48.832;8.732;2024-01-06T04:44:32;4.30;;;1.93;;
15944;SDS011;30172;48.832;8.732;2024-01-06T04:46:58;4.30;;;2.27;;
15944;SDS011;30172;48.832;8.732;2024-01-06T04:49:23;9.50;;;2.20;;
15944;SDS011;30172;48.832;8.732;2024-01-06T04:51:48;5.13;;;2.80;;
15944;SDS011;30172;48.832;8.732;2024-01-06T04:54:14;4.70;;;2.20;;
15944;SDS011;30172;48.832;8.732;2024-01-06T04:56:39;4.33;;;2.40;;
15944;SDS011;30172;48.832;8.732;2024-01-06T04:59:05;6.07;;;2.70;;
15944;SDS011;30172;48.832;8.732;2024-01-06T05:01:30;3.43;;;3.00;;
15944;SDS011;30172;48.832;8.732;2024-01-06T05:03:56;4.63;;;2.70;;
15944;SDS011;30172;48.832;8.732;2024-01-06T05:06:21;2.87;;;2.57;;
15944;SDS011;30172;48.832;8.732;2024-01-06T05:08:48;6.43;;;2.53;;
15944;SDS011;30172;48.832;8.732;2024-01-06T05:11:13;2.87;;;2.30;;
15944;SDS011;30172;48.832;8.732;2024-01-06T05:13:38;5.87;;;2.70;;
15944;SDS011;30172;48.832;8.732;2024-01-06T05:16:04;5.67;;;2.70;;
15944;SDS011;30172;48.832;8.732;2024-01-06T05:18:29;2.73;;;2.43;;
15944;SDS011;30172;48.832;8.732;2024-01-06T05:20:55;5.40;;;2.70;;
15944;SDS011;30172;48.832;8.732;2024-01-06T05:23:20;7.23;;;2.97;;
15944;SDS011;30172;48.832;8.732;2024-01-06T05:25:46;4.67;;;2.60;;
15944;SDS011;30172;48.832;8.732;2024-01-06T05:28:11;8.60;;;2.47;;
15944;SDS011;30172;48.832;8.732;2024-01-06T05:30:36;2.70;;;2.43;;
15944;SDS011;30172;48.832;8.732;2024-01-06T05:33:02;6.50;;;2.60;;
15944;SDS011;30172;48.832;8.732;2024-01-06T05:35:28;3.67;;;2.50;;
15944;SDS011;30172;48.832;8.732;2024-01-06T05:37:54;5.13;;;2.43;;
15944;SDS011;30172;48.832;8.732;2024-01-06T05:40:19;4.37;;;2.27;;
15944;SDS011;30172;48.832;8.732;2024-01-06T05:42:44;2.63;;;2.17;;
15944;SDS011;30172;48.832;8.732;2024-01-06T05:45:10;2.10;;;1.90;;
15944;SDS011;30172;48.832;8.732;2024-01-06T05:47:37;2.73;;;1.70;;
15944;SDS011;30172;48.832;8.732;2024-01-06T05:50:03;1.90;;;1.80;;
15944;SDS011;30172;48.832;8.732;2024-01-06T05:52:28;3.53;;;2.00;;
15944;SDS011;30172;48.832;8.732;2024-01-06T05:54:53;2.10;;;1.90;;
15944;SDS011;30172;48.832;8.732;2024-01-06T05:57:19;1.67;;;1.57;;
15944;SDS011;30172;48.832;8.732;2024-01-06T05:59:44;2.20;;;1.60;;
15944;SDS011;30172;48.832;8.732;2024-01-06T06:02:10;4.13;;;2.10;;
15944;SDS011;30172;48.832;8.732;2024-01-06T06:04:35;3.80;;;1.77;;
15944;SDS011;30172;48.832;8.732;2024-01-06T06:07:00;4.00;;;1.83;;
15944;SDS011;30172;48.832;8.732;2024-01-06T06:09:27;3.37;;;1.87;;
15944;SDS011;30172;48.832;8.732;2024-01-06T06:11:53;4.67;;;1.83;;
15944;SDS011;30172;48.832;8.732;2024-01-06T06:14:19;3.10;;;1.90;;
15944;SDS011;30172;48.832;8.732;2024-01-06T06:16:44;2.03;;;1.73;;
15944;SDS011;30172;48.832;8.732;2024-01-06T06:19:09;4.20;;;2.73;;
15944;SDS011;30172;48.832;8.732;2024-01-06T06:21:35;4.83;;;1.97;;
15944;SDS011;30172;48.832;8.732;2024-01-06T06:24:00;3.60;;;2.23;;
15944;SDS011;30172;48.832;8.732;2024-01-06T06:26:27;2.10;;;1.90;;
15944;SDS011;30172;48.832;8.732;2024-01-06T06:28:53;2.00;;;1.80;;
15944;SDS011;30172;48.832;8.732;2024-01-06T06:31:18;2.57;;;1.60;;
15944;SDS011;30172;48.832;8.732;2024-01-06T06:33:44;1.70;;;1.60;;
15944;SDS011;30172;48.832;8.732;2024-01-06T06:36:10;3.67;;;1.70;;
15944;SDS011;30172;48.832;8.732;2024-01-06T06:38:35;1.33;;;1.23;;
15944;SDS011;30172;48.832;8.732;2024-01-06T06:41:00;3.70;;;1.80;;
15944;SDS011;30172;48.832;8.732;2024-01-06T06:43:26;1.60;;;1.30;;
15944;SDS011;30172;48.832;8.732;2024-01-06T06:45:51;2.97;;;1.47;;
15944;SDS011;30172;48.832;8.732;2024-01-06T06:48:16;3.40;;;1.53;;
15944;SDS011;30172;48.832;8.732;2024-01-06T06:50:42;1.17;;;1.07;;
15944;SDS011;30172;48.832;8.732;2024-01-06T06:53:08;1.83;;;1.43;;
15944;SDS011;30172;48.832;8.732;2024-01-06T06:55:33;2.47;;;1.20;;
15944;SDS011;30172;48.832;8.732;2024-01-06T06:57:58;2.73;;;1.30;;
15944;SDS011;30172;48.832;8.732;2024-01-06T07:00:24;1.83;;;1.47;;
15944;SDS011;30172;48.832;8.732;2024-01-06T07:02:49;1.73;;;1.50;;
15944;SDS011;30172;48.832;8.732;2024-01-06T07:05:15;4.53;;;1.53;;
15944;SDS011;30172;48.832;8.732;2024-01-06T07:07:40;2.23;;;1.50;;
15944;SDS011;30172;48.832;8.732;2024-01-06T07:10:06;1.60;;;1.40;;
15944;SDS011;30172;48.832;8.732;2024-01-06T07:12:32;2.77;;;1.80;;
15944;SDS011;30172;48.832;8.732;2024-01-06T07:14:57;1.63;;;1.20;;
15944;SDS011;30172;48.832;8.732;2024-01-06T07:17:25;2.53;;;1.60;;
15944;SDS011;30172;48.832;8.732;2024-01-06T07:19:51;1.27;;;0.97;;
15944;SDS011;30172;48.832;8.732;2024-01-06T07:22:16;2.53;;;1.57;;
15944;SDS011;30172;48.832;8.732;2024-01-06T07:24:43;2.00;;;1.30;;
15944;SDS011;30172;48.832;8.732;2024-01-06T07:27:08;1.43;;;1.20;;
15944;SDS011;30172;48.832;8.732;2024-01-06T07:29:34;2.83;;;1.60;;
15944;SDS011;30172;48.832;8.732;2024-01-06T07:31:59;4.57;;;1.63;;
15944;SDS011;30172;48.832;8.732;2024-01-06T07:34:24;3.30;;;1.80;;
15944;SDS011;30172;48.832;8.732;2024-01-06T07:36:50;6.13;;;2.17;;
15944;SDS011;30172;48.832;8.732;2024-01-06T07:39:15;3.63;;;2.10;;
15944;SDS011;30172;48.832;8.732;2024-01-06T07:41:41;4.07;;;2.33;;
15944;SDS011;30172;48.832;8.732;2024-01-06T07:44:07;3.73;;;2.40;;
15944;SDS011;30172;48.832;8.732;2024-01-06T07:46:32;3.33;;;2.10;;
15944;SDS011;30172;48.832;8.732;2024-01-06T07:48:58;1.73;;;1.63;;
15944;SDS011;30172;48.832;8.732;2024-01-06T07:51:23;6.73;;;1.70;;
15944;SDS011;30172;48.832;8.732;2024-01-06T07:53:50;2.50;;;1.83;;
15944;SDS011;30172;48.832;8.732;2024-01-06T07:56:15;2.90;;;1.40;;
15944;SDS011;30172;48.832;8.732;2024-01-06T07:58:41;2.00;;;1.80;;
15944;SDS011;30172;48.832;8.732;2024-01-06T08:01:07;1.60;;;1.50;;
15944;SDS011;30172;48.832;8.732;2024-01-06T08:03:32;2.07;;;1.67;;
15944;SDS011;30172;48.832;8.732;2024-01-06T08:05:57;7.63;;;4.30;;
15944;SDS011;30172;48.832;8.732;2024-01-06T08:08:23;4.77;;;3.10;;
15944;SDS011;30172;48.832;8.732;2024-01-06T08:10:48;3.57;;;2.20;;
15944;SDS011;30172;48.832;8.732;2024-01-06T08:13:14;2.67;;;1.90;;
15944;SDS011;30172;48.832;8.732;2024-01-06T08:15:39;4.27;;;2.43;;
15944;SDS011;30172;48.832;8.732;2024-01-06T08:18:05;2.63;;;1.80;;
15944;SDS011;30172;48.832;8.732;2024-01-06T08:20:30;4.60;;;2.13;;
15944;SDS011;30172;48.832;8.732;2024-01-06T08:22:56;10.37;;;4.73;;
15944;SDS011;30172;48.832;8.732;2024-01-06T08:25:21;26.60;;;13.00;;
15944;SDS011;30172;48.832;8.732;2024-01-06T08:27:46;26.10;;;12.53;;
15944;SDS011;30172;48.832;8.732;2024-01-06T08:30:12;50.03;;;21.40;;
15944;SDS011;30172;48.832;8.732;2024-01-06T08:32:38;35.13;;;19.97;;
15944;SDS011;30172;48.832;8.732;2024-01-06T08:35:03;6.60;;;3.43;;
15944;SDS011;30172;48.832;8.732;2024-01-06T08:37:29;2.47;;;1.90;;
15944;SDS011;30172;48.832;8.732;2024-01-06T08:39:55;3.50;;;2.70;;
15944;SDS011;30172;48.832;8.732;2024-01-06T08:42:20;6.10;;;4.07;;
15944;SDS011;30172;48.832;8.732;2024-01-06T08:44:45;4.43;;;3.80;;
15944;SDS011;30172;48.832;8.732;2024-01-06T08:47:12;2.27;;;2.07;;
15944;SDS011;30172;48.832;8.732;2024-01-06T08:49:37;2.37;;;2.17;;
15944;SDS011;30172;48.832;8.732;2024-01-06T08:52:03;5.77;;;1.70;;
15944;SDS011;30172;48.832;8.732;2024-01-06T08:54:28;3.40;;;1.87;;
15944;SDS011;30172;48.832;8.732;2024-01-06T08:56:54;2.10;;;1.90;;
15944;SDS011;30172;48.832;8.732;2024-01-06T08:59:20;2.93;;;1.70;;
15944;SDS011;30172;48.832;8.732;2024-01-06T09:01:45;5.57;;;2.27;;
15944;SDS011;30172;48.832;8.732;2024-01-06T09:04:10;2.60;;;2.33;;
15944;SDS011;30172;48.832;8.732;2024-01-06T09:06:37;2.40;;;1.70;;
15944;SDS011;30172;48.832;8.732;2024-01-06T09:09:03;2.70;;;1.80;;
15944;SDS011;30172;48.832;8.732;2024-01-06T09:11:28;1.93;;;1.60;;
15944;SDS011;30172;48.832;8.732;2024-01-06T09:13:54;4.33;;;2.27;;
15944;SDS011;30172;48.832;8.732;2024-01-06T09:16:19;6.13;;;2.77;;
15944;SDS011;30172;48.832;8.732;2024-01-06T09:18:45;3.90;;;2.57;;
15944;SDS011;30172;48.832;8.732;2024-01-06T09:21:10;2.87;;;2.43;;
15944;SDS011;30172;48.832;8.732;2024-01-06T09:23:35;3.40;;;2.37;;
15944;SDS011;30172;48.832;8.732;2024-01-06T09:26:01;4.00;;;2.60;;
15944;SDS011;30172;48.832;8.732;2024-01-06T09:28:26;3.77;;;2.47;;
15944;SDS011;30172;48.832;8.732;2024-01-06T09:30:52;2.10;;;1.90;;
15944;SDS011;30172;48.832;8.732;2024-01-06T09:33:20;3.83;;;2.40;;
15944;SDS011;30172;48.832;8.732;2024-01-06T09:35:46;2.77;;;1.93;;
15944;SDS011;30172;48.832;8.732;2024-01-06T09:38:12;2.40;;;2.00;;
15944;SDS011;30172;48.832;8.732;2024-01-06T09:40:41;2.53;;;2.13;;
15944;SDS011;30172;48.832;8.732;2024-01-06T09:43:08;2.97;;;2.33;;
15944;SDS011;30172;48.832;8.732;2024-01-06T09:45:34;3.40;;;2.33;;
15944;SDS011;30172;48.832;8.732;2024-01-06T09:47:59;6.50;;;4.17;;
15944;SDS011;30172;48.832;8.732;2024-01-06T09:50:35;7.23;;;5.27;;
15944;SDS011;30172;48.832;8.732;2024-01-06T09:53:01;3.83;;;3.30;;
15944;SDS011;30172;48.832;8.732;2024-01-06T09:55:30;2.67;;;2.10;;
15944;SDS011;30172;48.832;8.732;2024-01-06T09:57:56;4.07;;;2.43;;
15944;SDS011;30172;48.832;8.732;2024-01-06T10:00:21;6.00;;;3.40;;
15944;SDS011;30172;48.832;8.732;2024-01-06T10:02:47;6.47;;;3.83;;
15944;SDS011;30172;48.832;8.732;2024-01-06T10:05:14;5.07;;;3.27;;
15944;SDS011;30172;48.832;8.732;2024-01-06T10:07:41;6.03;;;3.77;;
15944;SDS011;30172;48.832;8.732;2024-01-06T10:10:08;6.80;;;4.77;;
15944;SDS011;30172;48.832;8.732;2024-01-06T10:12:36;4.03;;;2.77;;
15944;SDS011;30172;48.832;8.732;2024-01-06T10:15:02;2.53;;;2.13;;
15944;SDS011;30172;48.832;8.732;2024-01-06T10:17:28;2.80;;;2.40;;
15944;SDS011;30172;48.832;8.732;2024-01-06T10:19:53;2.90;;;1.87;;
15944;SDS011;30172;48.832;8.732;2024-01-06T10:22:19;3.70;;;2.33;;
15944;SDS011;30172;48.832;8.732;2024-01-06T10:24:45;3.97;;;2.50;;
15944;SDS011;30172;48.832;8.732;2024-01-06T10:27:11;3.50;;;3.00;;
15944;SDS011;30172;48.832;8.732;2024-01-06T10:29:36;5.33;;;3.67;;
15944;SDS011;30172;48.832;8.732;2024-01-06T10:32:02;5.63;;;3.97;;
15944;SDS011;30172;48.832;8.732;2024-01-06T10:34:28;4.63;;;2.87;;
15944;SDS011;30172;48.832;8.732;2024-01-06T10:36:54;6.30;;;3.63;;
15944;SDS011;30172;48.832;8.732;2024-01-06T10:39:19;3.43;;;2.80;;
15944;SDS011;30172;48.832;8.732;2024-01-06T10:41:46;3.47;;;2.63;;
15944;SDS011;30172;48.832;8.732;2024-01-06T10:44:15;2.40;;;2.20;;
15944;SDS011;30172;48.832;8.732;2024-01-06T10:46:41;2.57;;;2.00;;
15944;SDS011;30172;48.832;8.732;2024-01-06T10:49:06;4.57;;;2.67;;
15944;SDS011;30172;48.832;8.732;2024-01-06T10:51:36;2.90;;;2.70;;
15944;SDS011;30172;48.832;8.732;2024-01-06T10:54:02;4.50;;;3.07;;
15944;SDS011;30172;48.832;8.732;2024-01-06T10:56:27;4.03;;;3.70;;
15944;SDS011;30172;48.832;8.732;2024-01-06T10:58:54;3.67;;;2.40;;
15944;SDS011;30172;48.832;8.732;2024-01-06T11:01:22;3.60;;;2.50;;
15944;SDS011;30172;48.832;8.732;2024-01-06T11:03:49;2.70;;;2.50;;
15944;SDS011;30172;48.832;8.732;2024-01-06T11:06:14;3.67;;;2.63;;
15944;SDS011;30172;48.832;8.732;2024-01-06T11:11:19;3.27;;;2.77;;
15944;SDS011;30172;48.832;8.732;2024-01-06T11:13:46;2.40;;;2.20;;
15944;SDS011;30172;48.832;8.732;2024-01-06T11:16:32;2.83;;;2.50;;
15944;SDS011;30172;48.832;8.732;2024-01-06T11:18:58;3.37;;;3.07;;
15944;SDS011;30172;48.832;8.732;2024-01-06T11:21:24;3.10;;;2.80;;
15944;SDS011;30172;48.832;8.732;2024-01-06T11:26:34;3.07;;;2.67;;
15944;SDS011;30172;48.832;8.732;2024-01-06T11:29:04;2.80;;;2.60;;
15944;SDS011;30172;48.832;8.732;2024-01-06T11:31:32;4.00;;;3.33;;
15944;SDS011;30172;48.832;8.732;2024-01-06T11:33:58;3.70;;;3.40;;
15944;SDS011;30172;48.832;8.732;2024-01-06T11:36:37;4.50;;;4.00;;
15944;SDS011;30172;48.832;8.732;2024-01-06T11:39:02;5.87;;;4.30;;
15944;SDS011;30172;48.832;8.732;2024-01-06T11:41:49;5.53;;;4.10;;
15944;SDS011;30172;48.832;8.732;2024-01-06T11:44:20;4.97;;;4.40;;
15944;SDS011;30172;48.832;8.732;2024-01-06T11:46:45;5.27;;;4.70;;
15944;SDS011;30172;48.832;8.732;2024-01-06T11:49:12;12.17;;;8.97;;
15944;SDS011;30172;48.832;8.732;2024-01-06T11:51:40;8.53;;;6.23;;
15944;SDS011;30172;48.832;8.732;2024-01-06T11:54:05;5.63;;;5.00;;
15944;SDS011;30172;48.832;8.732;2024-01-06T11:56:31;6.10;;;4.97;;
15944;SDS011;30172;48.832;8.732;2024-01-06T11:58:56;6.87;;;5.93;;
15944;SDS011;30172;48.832;8.732;2024-01-06T12:01:22;6.43;;;5.83;;
15944;SDS011;30172;48.832;8.732;2024-01-06T12:03:52;6.60;;;5.90;;
15944;SDS011;30172;48.832;8.732;2024-01-06T12:06:20;6.33;;;5.73;;
15944;SDS011;30172;48.832;8.732;2024-01-06T12:08:46;7.57;;;6.77;;
15944;SDS011;30172;48.832;8.732;2024-01-06T12:11:11;5.70;;;5.20;;
15944;SDS011;30172;48.832;8.732;2024-01-06T12:13:37;6.87;;;6.13;;
15944;SDS011;30172;48.832;8.732;2024-01-06T12:16:02;5.97;;;5.37;;
15944;SDS011;30172;48.832;8.732;2024-01-06T12:18:28;5.90;;;4.77;;
15944;SDS011;30172;48.832;8.732;2024-01-06T12:20:53;6.23;;;5.60;;
15944;SDS011;30172;48.832;8.732;2024-01-06T12:23:28;6.17;;;5.57;;
15944;SDS011;30172;48.832;8.732;2024-01-06T12:25:54;6.23;;;5.63;;
15944;SDS011;30172;48.832;8.732;2024-01-06T12:28:20;8.87;;;7.97;;
15944;SDS011;30172;48.832;8.732;2024-01-06T12:30:46;5.97;;;5.47;;
15944;SDS011;30172;48.832;8.732;2024-01-06T12:33:11;5.10;;;4.60;;
15944;SDS011;30172;48.832;8.732;2024-01-06T12:35:37;6.07;;;4.20;;
15944;SDS011;30172;48.832;8.732;2024-01-06T12:38:03;6.47;;;5.13;;
15944;SDS011;30172;48.832;8.732;2024-01-06T12:40:31;10.37;;;8.30;;
15944;SDS011;30172;48.832;8.732;2024-01-06T12:42:56;6.30;;;5.47;;
15944;SDS011;30172;48.832;8.732;2024-01-06T12:45:22;7.97;;;6.47;;
15944;SDS011;30172;48.832;8.732;2024-01-06T12:47:47;8.33;;;7.10;;
15944;SDS011;30172;48.832;8.732;2024-01-06T12:50:12;18.37;;;12.90;;
15944;SDS011;30172;48.832;8.732;2024-01-06T12:52:39;21.20;;;11.07;;
15944;SDS011;30172;48.832;8.732;2024-01-06T12:55:05;68.60;;;26.87;;
15944;SDS011;30172;48.832;8.732;2024-01-06T12:57:31;37.60;;;17.73;;
15944;SDS011;30172;48.832;8.732;2024-01-06T12:59:56;14.33;;;10.90;;
15944;SDS011;30172;48.832;8.732;2024-01-06T13:02:22;5.37;;;4.27;;
15944;SDS011;30172;48.832;8.732;2024-01-06T13:04:47;3.90;;;3.50;;
15944;SDS011;30172;48.832;8.732;2024-01-06T13:07:13;5.20;;;4.00;;
15944;SDS011;30172;48.832;8.732;2024-01-06T13:09:38;7.67;;;6.87;;
15944;SDS011;30172;48.832;8.732;2024-01-06T13:12:04;6.73;;;6.03;;
15944;SDS011;30172;48.832;8.732;2024-01-06T13:14:30;4.77;;;4.27;;
15944;SDS011;30172;48.832;8.732;2024-01-06T13:16:56;5.60;;;5.00;;
15944;SDS011;30172;48.832;8.732;2024-01-06T13:19:22;3.73;;;3.43;;
15944;SDS011;30172;48.832;8.732;2024-01-06T13:21:48;3.33;;;3.03;;
15944;SDS011;30172;48.832;8.732;2024-01-06T13:24:13;3.47;;;3.17;;
15944;SDS011;30172;48.832;8.732;2024-01-06T13:26:39;3.30;;;2.60;;
15944;SDS011;30172;48.832;8.732;2024-01-06T13:29:04;2.87;;;2.67;;
15944;SDS011;30172;48.832;8.732;2024-01-06T13:31:30;3.47;;;3.17;;
15944;SDS011;30172;48.832;8.732;2024-01-06T13:33:56;2.87;;;2.67;;
15944;SDS011;30172;48.832;8.732;2024-01-06T13:36:21;4.57;;;2.80;;
15944;SDS011;30172;48.832;8.732;2024-01-06T13:38:47;3.27;;;2.80;;
15944;SDS011;30172;48.832;8.732;2024-01-06T13:41:13;3.00;;;2.70;;
15944;SDS011;30172;48.832;8.732;2024-01-06T13:43:39;4.50;;;3.20;;
15944;SDS011;30172;48.832;8.732;2024-01-06T13:46:04;3.07;;;2.63;;
15944;SDS011;30172;48.832;8.732;2024-01-06T13:48:29;2.50;;;2.30;;
15944;SDS011;30172;48.832;8.732;2024-01-06T13:50:55;2.90;;;2.60;;
15944;SDS011;30172;48.832;8.732;2024-01-06T13:53:22;3.80;;;2.33;;
15944;SDS011;30172;48.832;8.732;2024-01-06T13:55:47;2.10;;;1.90;;
15944;SDS011;30172;48.832;8.732;2024-01-06T13:58:13;3.37;;;2.27;;
15944;SDS011;30172;48.832;8.732;2024-01-06T14:00:38;2.60;;;2.40;;
15944;SDS011;30172;48.832;8.732;2024-01-06T14:03:05;2.20;;;2.00;;
15944;SDS011;30172;48.832;8.732;2024-01-06T14:05:31;2.20;;;2.00;;
15944;SDS011;30172;48.832;8.732;2024-01-06T14:07:57;2.93;;;2.03;;
15944;SDS011;30172;48.832;8.732;2024-01-06T14:10:22;3.50;;;2.77;;
15944;SDS011;30172;48.832;8.732;2024-01-06T14:12:48;3.93;;;3.20;;
15944;SDS011;30172;48.832;8.732;2024-01-06T14:15:13;2.63;;;2.30;;
15944;SDS011;30172;48.832;8.732;2024-01-06T14:17:39;1.97;;;1.80;;
15944;SDS011;30172;48.832;8.732;2024-01-06T14:20:05;3.40;;;2.20;;
15944;SDS011;30172;48.832;8.732;2024-01-06T14:22:34;8.37;;;7.00;;
15944;SDS011;30172;48.832;8.732;2024-01-06T14:24:59;4.20;;;3.80;;
15944;SDS011;30172;48.832;8.732;2024-01-06T14:27:25;6.37;;;5.77;;
15944;SDS011;30172;48.832;8.732;2024-01-06T14:29:51;3.83;;;3.47;;
15944;SDS011;30172;48.832;8.732;2024-01-06T14:32:20;4.77;;;4.37;;
15944;SDS011;30172;48.832;8.732;2024-01-06T14:34:45;5.67;;;5.10;;
15944;SDS011;30172;48.832;8.732;2024-01-06T14:37:11;5.20;;;4.80;;
15944;SDS011;30172;48.832;8.732;2024-01-06T14:39:36;5.57;;;5.07;;
15944;SDS011;30172;48.832;8.732;2024-01-06T14:42:02;6.60;;;5.90;;
15944;SDS011;30172;48.832;8.732;2024-01-06T14:44:27;6.40;;;4.33;;